Thunder radar more information blitzortung!


Radar de pluja more information rain snow radar


Visita la nostra xarxa de llocs de meteo:

Template documentation
and downloads

And another site



No particular awareness of the weather is required.    There are no Weather-warnings

Pagina Historial Weather Underground text

Diari Resum January 11, 2018 Unitats:  Imperial    Mètric   Tant
« Previous Dia
SegĂźent Dia »
Diari Setmana Mensual Anual Personalitzada
  Maxima: Minima: Media:
Temperatura: TemperatureC °F 2.4 °F 7.4 °F
Punt de rosada: DewpointC °F -3.6 °F -1 °F
Humitat: Humidity % 47 % 55 %
Wind Speed: WindSpeedKMH mph 0.0 mph 4.9 mph
RĂ fegues de vent: WindSpeedGustKMH mph - -
Vent:- - WSW
Pression baro: PressurehPa in 1011.7 in -
Precipitacions: 0.0 in    
Historical Graphs
 
 
Dades de taula per January 11, 2018
Temps Temperatura Punt de rosada Pression baro Vent Wind Speed RĂ fegues de vent Humitat Rainfall Rate (Hourly)
TemperatureC °F DewpointC °F PressurehPa in Calm     Humidity % HourlyPrecipMM in
00:15 6.5 °F -0.9 °F 1011.7 in WSW 3.2 mph 6.4 mph 59 % 0.0 in
00:25 6.3 °F -1.1 °F 1011.7 in Calm   3.2 mph 59 % 0.0 in
00:35 6.2 °F -1.2 °F 1012.8 in WSW 1.6 mph 4.8 mph 59 % 0.0 in
00:45 6.2 °F -1.2 °F 1012.8 in West 1.6 mph 6.4 mph 59 % 0.0 in
00:55 6.3 °F -1.1 °F 1013.8 in Calm   3.2 mph 59 % 0.0 in
01:05 6.4 °F -1.1 °F 1012.8 in West 3.2 mph 8.0 mph 59 % 0.0 in
01:20 6.4 °F -1.3 °F 1012.8 in WSW 1.6 mph 3.2 mph 58 % 0.0 in
01:30 6.3 °F -1.1 °F 1012.8 in WSW 3.2 mph 6.4 mph 59 % 0.0 in
01:40 6.4 °F -1.3 °F 1013.8 in WSW 3.2 mph 6.4 mph 58 % 0.0 in
01:50 6.4 °F -1.3 °F 1013.8 in WSW 3.2 mph 6.4 mph 58 % 0.0 in
02:00 6.3 °F -1.4 °F 1013.8 in West 1.6 mph 6.4 mph 58 % 0.0 in
02:10 6.1 °F -1.8 °F 1012.8 in West 3.2 mph 4.8 mph 57 % 0.0 in
02:20 6.0 °F -1.9 °F 1012.8 in West 3.2 mph 4.8 mph 57 % 0.0 in
02:30 6.0 °F -1.9 °F 1012.8 in West 3.2 mph 4.8 mph 57 % 0.0 in
02:40 6.0 °F -1.9 °F 1013.8 in WSW 1.6 mph 9.7 mph 57 % 0.0 in
02:50 5.8 °F -2.1 °F 1013.8 in West 1.6 mph 1.6 mph 57 % 0.0 in
03:00 5.8 °F -2.1 °F 1013.8 in WNW 3.2 mph 6.4 mph 57 % 0.0 in
03:10 5.7 °F -2.2 °F 1013.8 in NNW 3.2 mph 3.2 mph 57 % 0.0 in
03:20 5.8 °F -2.1 °F 1013.8 in North 1.6 mph 3.2 mph 57 % 0.0 in
03:40 7.1 °F -0.8 °F 1012.8 in Calm   3.2 mph 57 % 0.0 in
03:50 7.3 °F -0.9 °F 1013.8 in South 1.6 mph 4.8 mph 56 % 0.0 in
04:00 7.6 °F -0.6 °F 1013.8 in SSW 3.2 mph 3.2 mph 56 % 0.0 in
04:20 8.3 °F -0.2 °F 1013.8 in SW 3.2 mph 6.4 mph 55 % 0.0 in
04:30 8.5 °F -0.3 °F 1013.8 in WSW 3.2 mph 4.8 mph 54 % 0.0 in
10:50 9.1 °F 0.0 °F 1013.8 in West 5.6 mph 5.6 mph 53 % 0.0 in
11:24 9.8 °F 0.7 °F 1013.8 in WNW 13.0 mph 13.0 mph 53 % 0.0 in
11:30 9.7 °F 0.3 °F 1013.8 in WNW 7.4 mph 7.4 mph 52 % 0.0 in
11:36 9.9 °F 0.5 °F 1013.8 in WSW 5.6 mph 5.6 mph 52 % 0.0 in
11:43 9.8 °F 0.4 °F 1013.8 in SW 13.7 mph 13.7 mph 52 % 0.0 in
11:48 9.8 °F 0.4 °F 1013.8 in West 14.8 mph 14.8 mph 52 % 0.0 in
11:53 9.9 °F 0.2 °F 1012.8 in West 10.3 mph 10.3 mph 51 % 0.0 in
11:59 10.2 °F 0.5 °F 1012.8 in NW 13.0 mph 13.0 mph 51 % 0.0 in
12:35 11.1 °F 1.3 °F 1012.8 in SW 6.4 mph 6.4 mph 51 % 0.0 in
12:48 11.3 °F 1.5 °F 1012.8 in North 2.3 mph 2.6 mph 51 % 0.0 in
13:19 11.3 °F 0.9 °F 1013.8 in North 7.4 mph 7.4 mph 49 % 0.0 in
13:25 11.3 °F 0.9 °F 1013.8 in NNW 13.0 mph 13.0 mph 49 % 0.0 in
13:30 11.2 °F 0.9 °F 1013.8 in WNW 9.3 mph 9.3 mph 49 % 0.0 in
13:45 11.5 °F 1.2 °F 1013.8 in WNW 9.3 mph 9.3 mph 49 % 0.0 in
13:56 11.6 °F 1.2 °F 1013.8 in NNW 9.3 mph 9.3 mph 49 % 0.0 in
14:15 11.7 °F 1.6 °F 1013.8 in NW 5.3 mph 5.3 mph 50 % 0.0 in
14:23 11.5 °F 1.2 °F 1013.8 in South 5.6 mph 5.6 mph 49 % 0.0 in
14:33 11.6 °F 1.2 °F 1013.8 in NNW 9.3 mph 9.3 mph 49 % 0.0 in
14:41 11.7 °F 1.3 °F 1013.8 in WSW 11.1 mph 11.1 mph 49 % 0.0 in
15:04 11.7 °F 1.1 °F 1013.8 in West 13.0 mph 13.0 mph 48 % 0.0 in
15:27 12.7 °F 1.9 °F 1013.8 in SSE 7.4 mph 7.4 mph 48 % 0.0 in
15:35 12.7 °F 1.9 °F 1013.8 in NW 9.3 mph 9.3 mph 48 % 0.0 in
15:47 12.5 °F 1.8 °F 1013.8 in West 11.1 mph 11.1 mph 48 % 0.0 in
15:52 12.4 °F 1.4 °F 1013.8 in West 9.7 mph 9.7 mph 47 % 0.0 in
15:57 12.5 °F 1.5 °F 1013.8 in West 9.3 mph 9.3 mph 47 % 0.0 in
16:10 12.4 °F 1.4 °F 1013.8 in West 9.5 mph 9.5 mph 47 % 0.0 in
16:21 12.3 °F 1.3 °F 1013.8 in WNW 9.3 mph 9.3 mph 47 % 0.0 in
16:35 12.2 °F 1.2 °F 1013.8 in WNW 5.6 mph 5.6 mph 47 % 0.0 in
16:47 12.1 °F 1.1 °F 1013.8 in WSW 9.3 mph 9.3 mph 47 % 0.0 in
16:53 12.0 °F 1.0 °F 1013.8 in WSW 9.3 mph 9.3 mph 47 % 0.0 in
16:58 11.9 °F 0.9 °F 1013.8 in WSW 7.4 mph 7.4 mph 47 % 0.0 in
17:07 11.7 °F 0.7 °F 1014.8 in West 9.3 mph 9.3 mph 47 % 0.0 in
17:20 11.5 °F 0.6 °F 1014.8 in West 4.7 mph 4.7 mph 47 % 0.0 in
17:32 11.1 °F 0.5 °F 1014.8 in West 3.2 mph   48 % 0.0 in
17:38 10.8 °F 0.2 °F 1014.8 in West 6.1 mph 6.1 mph 48 % 0.0 in
17:46 10.5 °F -0.1 °F 1014.8 in West 7.4 mph 7.4 mph 48 % 0.0 in
17:53 10.3 °F -0.2 °F 1015.8 in WSW 3.7 mph 3.7 mph 48 % 0.0 in
18:09 9.9 °F -0.6 °F 1015.8 in WSW 3.7 mph 3.7 mph 48 % 0.0 in
18:14 9.8 °F -0.7 °F 1015.8 in South 4.7 mph 4.7 mph 48 % 0.0 in
18:30 5.3 °F -2.1 °F 1017.8 in Calm   4.8 mph 59 % 0.0 in
18:40 5.2 °F -2.2 °F 1017.8 in West 1.6 mph 6.4 mph 59 % 0.0 in
18:46 9.1 °F -1.1 °F 1014.8 in NNE 4.7 mph 4.7 mph 49 % 0.0 in
18:50 5.1 °F -2.1 °F 1017.8 in Calm   4.8 mph 60 % 0.0 in
18:58 8.9 °F -1.3 °F 1015.8 in WNW 5.6 mph 5.6 mph 49 % 0.0 in
19:00 5.0 °F -2.1 °F 1017.8 in Calm   3.2 mph 60 % 0.0 in
19:10 4.9 °F -2.0 °F 1017.8 in Calm   3.2 mph 61 % 0.0 in
19:20 4.8 °F -2.1 °F 1017.8 in Calm   3.2 mph 61 % 0.0 in
19:30 4.8 °F -2.1 °F 1017.8 in Calm   3.2 mph 61 % 0.0 in
19:31 8.5 °F -1.3 °F 1014.8 in WNW 7.4 mph 7.4 mph 50 % 0.0 in
19:40 4.7 °F -2.2 °F 1017.8 in WSW 3.2 mph 6.4 mph 61 % 0.0 in
19:50 4.7 °F -2.2 °F 1017.8 in WSW 1.6 mph 4.8 mph 61 % 0.0 in
19:51 8.2 °F -1.3 °F 1015.8 in WSW 5.6 mph 5.6 mph 51 % 0.0 in
19:57 8.1 °F -1.4 °F 1015.8 in WSW 4.7 mph 4.7 mph 51 % 0.0 in
20:00 4.6 °F -2.3 °F 1017.8 in WSW 3.2 mph 3.2 mph 61 % 0.0 in
20:10 4.4 °F -2.3 °F 1017.8 in SW 3.2 mph 3.2 mph 62 % 0.0 in
20:11 8.0 °F -1.6 °F 1015.8 in WSW 9.3 mph 9.3 mph 51 % 0.0 in
20:18 7.9 °F -1.6 °F 1015.8 in WSW 9.3 mph 9.3 mph 51 % 0.0 in
20:20 4.2 °F -2.4 °F 1017.8 in SW 1.6 mph 3.2 mph 62 % 0.0 in
20:23 7.9 °F -1.4 °F 1015.8 in WNW 9.3 mph 9.3 mph 52 % 0.0 in
20:30 4.2 °F -2.4 °F 1017.8 in WSW 3.2 mph 3.2 mph 62 % 0.0 in
20:40 4.2 °F -2.2 °F 1017.8 in WSW 1.6 mph 3.2 mph 63 % 0.0 in
20:42 7.5 °F -1.7 °F 1015.8 in West 11.1 mph 11.1 mph 52 % 0.0 in
20:47 7.5 °F -1.5 °F 1015.8 in WSW 5.3 mph   53 % 0.0 in
20:50 3.9 °F -2.5 °F 1018.8 in WSW 1.6 mph 3.2 mph 63 % 0.0 in
21:00 3.8 °F -2.6 °F 1018.8 in Calm     63 % 0.0 in
21:10 3.7 °F -2.5 °F 1018.8 in Calm     64 % 0.0 in
21:20 3.7 °F -2.5 °F 1018.8 in WNW 1.6 mph 4.8 mph 64 % 0.0 in
21:30 3.6 °F -2.8 °F 1018.8 in WNW 1.6 mph 3.2 mph 63 % 0.0 in
21:34 7.1 °F -1.6 °F 1016.8 in WSW 9.3 mph 9.3 mph 54 % 0.0 in
21:40 3.5 °F -2.7 °F 1018.8 in WNW 1.6 mph 3.2 mph 64 % 0.0 in
21:50 6.9 °F -1.6 °F 1017.5 in West 3.2 mph 8.0 mph 55 % 0.0 in
21:57 6.7 °F -1.7 °F 1017.8 in NW 6.1 mph 6.1 mph 55 % 0.0 in
22:00 3.0 °F -3.2 °F 1018.8 in Calm     64 % 0.0 in
22:04 6.7 °F -1.7 °F 1017.8 in WSW 5.6 mph 5.6 mph 55 % 0.0 in
22:10 3.0 °F -2.9 °F 1018.8 in WSW 1.6 mph 1.6 mph 65 % 0.0 in
22:12 6.6 °F -1.8 °F 1017.8 in West 7.4 mph 7.4 mph 55 % 0.0 in
22:20 2.6 °F -3.6 °F 1018.8 in West 3.2 mph 3.2 mph 64 % 0.0 in
22:22 6.5 °F -1.9 °F 1018.8 in WSW 11.1 mph 11.1 mph 55 % 0.0 in
22:28 6.4 °F -2.0 °F 1018.8 in West 6.4 mph 6.4 mph 55 % 0.0 in
22:30 2.7 °F -3.2 °F 1018.8 in Calm   3.2 mph 65 % 0.0 in
22:40 2.8 °F -2.9 °F 1019.9 in Calm   3.2 mph 66 % 0.0 in
22:41 6.4 °F -1.8 °F 1016.8 in WNW 9.3 mph 9.3 mph 56 % 0.0 in
22:50 2.9 °F -2.8 °F 1018.8 in Calm   1.6 mph 66 % 0.0 in
23:00 2.8 °F -3.1 °F 1018.8 in NNE 1.6 mph 3.2 mph 65 % 0.0 in
23:10 2.7 °F -3.0 °F 1018.8 in Calm   1.6 mph 66 % 0.0 in
23:11 6.1 °F -1.8 °F 1017.8 in WNW 3.7 mph 3.7 mph 57 % 0.0 in
23:18 6.0 °F -1.9 °F 1017.8 in WNW 7.4 mph 7.4 mph 57 % 0.0 in
23:20 2.6 °F -3.1 °F 1019.9 in Calm   1.6 mph 66 % 0.0 in
23:25 6.0 °F -1.9 °F 1017.8 in West 7.4 mph 7.4 mph 57 % 0.0 in
23:30 2.6 °F -3.1 °F 1019.9 in NW 1.6 mph 1.6 mph 66 % 0.0 in
23:37 5.8 °F -1.8 °F 1017.8 in West 5.6 mph 5.6 mph 58 % 0.0 in
23:40 2.4 °F -3.5 °F 1019.9 in West 3.2 mph 4.8 mph 65 % 0.0 in
23:42 5.8 °F -1.8 °F 1017.8 in West 7.4 mph 7.4 mph 58 % 0.0 in
23:50 2.4 °F -3.3 °F 1019.9 in Calm   4.8 mph 66 % 0.0 in
Meteo Sesrovires
Elogis d' Weather Underground - 1.25 mb

Guio original per  Jim McMurry - jmcmurry@mwt.net Adaptat per a la plantilla per  Wim van der Kuil - Leuven-Template.eu

Trobareu la nostra informacio del temps tambe a:

Weather Underground

AWEKAS